Time;durP1;ratioP1;P1;durP2;ratioP2;P2;SDS_P1;SDS_P2;PMS_P1;PMS_P2;Temp;Humidity;BMP_temperature;BMP_pressure;BME280_temperature;BME280_humidity;BME280_pressure;Samples;Min_cycle;Max_cycle;Signal;HPM_P1;HPM_P2
2023/07/21 00:00:50;;;;;;;;;;;11.70;99.90;;;;;;5094790;28;19930;-80
2023/07/21 00:03:17;;;;;;;;;;;11.60;99.90;;;;;;5112578;28;19931;-78
2023/07/21 00:05:43;;;;;;;;;;;11.60;99.90;;;;;;5094827;28;19989;-75
2023/07/21 00:08:08;;;;;;;;;;;11.60;99.90;;;;;;5112172;28;19966;-77
2023/07/21 00:10:34;;;;;;;;;;;11.50;99.90;;;;;;5078635;28;19920;-77
2023/07/21 00:12:59;;;;;;;;;;;11.50;99.90;;;;;;5111619;28;19927;-81
2023/07/21 00:15:28;;;;;;;;;;;11.50;99.90;;;;;;5112349;28;19920;-79
2023/07/21 00:17:54;;;;;;;;;;;11.50;99.90;;;;;;5094458;28;19924;-80
2023/07/21 00:20:21;;;;;;;;;;;11.50;99.90;;;;;;5077765;28;19977;-81
2023/07/21 00:22:47;;;;;;;;;;;11.40;99.90;;;;;;5111081;28;19969;-78
2023/07/21 00:25:13;;;;;;;;;;;11.40;99.90;;;;;;5111594;28;19935;-77
2023/07/21 00:27:39;;;;;;;;;;;11.40;99.90;;;;;;5112564;28;19920;-78
2023/07/21 00:30:08;;;;;;;;;;;11.30;99.90;;;;;;5111991;28;19969;-82
2023/07/21 00:32:37;;;;;;;;;;;11.30;99.90;;;;;;5112089;28;20278;-79
2023/07/21 00:35:10;;;;;;;;;;;11.20;99.90;;;;;;5111609;28;19945;-84
2023/07/21 00:37:36;;;;;;;;;;;11.20;99.90;;;;;;5094494;28;19963;-79
2023/07/21 00:40:09;;;;;;;;;;;11.10;99.90;;;;;;5111677;28;19924;-78
2023/07/21 00:42:36;;;;;;;;;;;11.10;99.90;;;;;;5112402;28;20325;-78
2023/07/21 00:45:02;;;;;;;;;;;11.10;99.90;;;;;;5117080;28;19927;-78
2023/07/21 00:47:29;;;;;;;;;;;11.00;99.90;;;;;;5103927;28;19923;-76
2023/07/21 00:49:56;;;;;;;;;;;11.00;99.90;;;;;;5113352;28;19928;-78
2023/07/21 00:52:23;;;;;;;;;;;10.90;99.90;;;;;;5095115;28;19927;-78
2023/07/21 00:54:48;;;;;;;;;;;10.90;99.90;;;;;;5094076;28;20377;-78
2023/07/21 00:57:15;;;;;;;;;;;10.80;99.90;;;;;;5110802;28;19931;-79
2023/07/21 00:59:41;;;;;;;;;;;10.80;99.90;;;;;;5110519;28;20411;-76
2023/07/21 01:02:07;;;;;;;;;;;10.80;99.90;;;;;;5094503;28;20585;-77
2023/07/21 01:04:33;;;;;;;;;;;10.80;99.90;;;;;;5078128;28;19928;-76
2023/07/21 01:07:08;;;;;;;;;;;10.70;99.90;;;;;;5095052;28;19930;-80
2023/07/21 01:09:35;;;;;;;;;;;10.70;99.90;;;;;;5112121;28;20003;-81
2023/07/21 01:12:01;;;;;;;;;;;10.70;99.90;;;;;;5111376;28;19923;-79
2023/07/21 01:14:28;;;;;;;;;;;10.70;99.90;;;;;;5111533;28;19920;-81
2023/07/21 01:16:55;;;;;;;;;;;10.70;99.90;;;;;;5111544;28;19931;-77
2023/07/21 01:19:20;;;;;;;;;;;10.60;99.90;;;;;;5098918;28;19930;-77
2023/07/21 01:21:48;;;;;;;;;;;10.60;99.90;;;;;;5115102;28;19920;-82
2023/07/21 01:24:36;;;;;;;;;;;10.60;99.90;;;;;;5115250;28;19941;-79
2023/07/21 01:27:05;;;;;;;;;;;10.50;99.90;;;;;;5114974;28;20018;-81
2023/07/21 01:29:34;;;;;;;;;;;10.50;99.90;;;;;;5098286;28;19920;-77
2023/07/21 01:32:06;;;;;;;;;;;10.50;99.90;;;;;;5114911;28;20069;-82
2023/07/21 01:34:33;;;;;;;;;;;10.40;99.90;;;;;;5116443;27;19919;-79
2023/07/21 01:37:00;;;;;;;;;;;10.40;99.90;;;;;;5098184;28;19949;-79
2023/07/21 01:39:27;;;;;;;;;;;10.40;99.90;;;;;;5115158;28;20253;-81
2023/07/21 01:41:52;;;;;;;;;;;10.40;99.90;;;;;;5097624;28;19931;-79
2023/07/21 01:44:21;;;;;;;;;;;10.40;99.90;;;;;;5116362;28;19923;-83
2023/07/21 01:46:47;;;;;;;;;;;10.40;99.90;;;;;;5115076;28;20448;-77
2023/07/21 01:49:15;;;;;;;;;;;10.40;99.90;;;;;;5097758;28;20018;-82
2023/07/21 01:51:43;;;;;;;;;;;10.40;99.90;;;;;;5114529;28;19931;-83
2023/07/21 01:54:11;;;;;;;;;;;10.40;99.90;;;;;;5113724;28;19927;-79
2023/07/21 01:56:46;;;;;;;;;;;10.40;99.90;;;;;;5114460;28;20518;-80
2023/07/21 01:59:12;;;;;;;;;;;10.40;99.90;;;;;;5114456;28;20410;-78
2023/07/21 02:01:38;;;;;;;;;;;10.40;99.90;;;;;;5113870;28;19930;-78
2023/07/21 02:04:04;;;;;;;;;;;10.40;99.90;;;;;;5113996;28;19924;-82
2023/07/21 02:06:31;;;;;;;;;;;10.40;99.90;;;;;;5113932;28;19931;-83
2023/07/21 02:08:57;;;;;;;;;;;10.40;99.90;;;;;;5079602;28;19927;-78
2023/07/21 02:11:22;;;;;;;;;;;10.40;99.90;;;;;;5114066;28;20288;-81
2023/07/21 02:13:48;;;;;;;;;;;10.40;99.90;;;;;;5113917;28;19928;-76
2023/07/21 02:16:13;;;;;;;;;;;10.40;99.90;;;;;;5114218;28;20423;-81
2023/07/21 02:18:41;;;;;;;;;;;10.30;99.90;;;;;;5113800;28;19928;-82
2023/07/21 02:21:06;;;;;;;;;;;10.40;99.90;;;;;;5113840;28;19924;-79
2023/07/21 02:23:32;;;;;;;;;;;10.40;99.90;;;;;;5115975;28;19930;-84
2023/07/21 02:25:58;;;;;;;;;;;10.40;99.90;;;;;;5098519;28;19963;-80
2023/07/21 02:28:24;;;;;;;;;;;10.40;99.90;;;;;;5098509;28;19945;-80
2023/07/21 02:31:02;;;;;;;;;;;10.50;99.90;;;;;;5097106;28;19919;-79
2023/07/21 02:33:29;;;;;;;;;;;10.50;99.90;;;;;;5096435;28;19920;-79
2023/07/21 02:35:54;;;;;;;;;;;10.50;99.90;;;;;;5113248;28;20032;-78
2023/07/21 02:38:20;;;;;;;;;;;10.50;99.90;;;;;;5116824;28;19927;-81
2023/07/21 02:40:46;;;;;;;;;;;10.40;99.90;;;;;;5114643;28;20464;-80
2023/07/21 02:43:12;;;;;;;;;;;10.40;99.90;;;;;;5114332;28;20002;-80
2023/07/21 02:45:38;;;;;;;;;;;10.30;99.90;;;;;;5080450;28;19987;-80
2023/07/21 02:48:07;;;;;;;;;;;10.30;99.90;;;;;;5113685;28;20252;-81
2023/07/21 02:50:35;;;;;;;;;;;10.30;99.90;;;;;;5113029;28;19967;-81
2023/07/21 02:53:01;;;;;;;;;;;10.20;99.90;;;;;;5113232;28;19985;-83
2023/07/21 02:55:27;;;;;;;;;;;10.20;99.90;;;;;;5112878;28;20391;-81
2023/07/21 02:57:53;;;;;;;;;;;10.20;99.90;;;;;;5113183;28;19924;-79
2023/07/21 03:00:20;;;;;;;;;;;10.10;99.90;;;;;;5113560;28;20002;-81
2023/07/21 03:02:49;;;;;;;;;;;10.10;99.90;;;;;;5114839;28;19920;-85
2023/07/21 03:05:14;;;;;;;;;;;10.10;99.90;;;;;;5112910;28;19924;-79
2023/07/21 03:07:40;;;;;;;;;;;10.10;99.90;;;;;;5096496;28;19923;-78
2023/07/21 03:10:12;;;;;;;;;;;10.10;99.90;;;;;;5114049;28;19923;-78
2023/07/21 03:12:37;;;;;;;;;;;10.10;99.90;;;;;;5112734;28;19920;-77
2023/07/21 03:15:04;;;;;;;;;;;10.10;99.90;;;;;;5114145;28;19962;-77
2023/07/21 03:17:29;;;;;;;;;;;10.10;99.90;;;;;;5112916;28;19967;-82
2023/07/21 03:19:55;;;;;;;;;;;10.00;99.90;;;;;;5112301;28;20016;-80
2023/07/21 03:22:20;;;;;;;;;;;10.00;99.90;;;;;;5078774;28;19984;-77
2023/07/21 03:24:48;;;;;;;;;;;10.00;99.90;;;;;;5095566;28;20018;-81
2023/07/21 03:27:14;;;;;;;;;;;10.00;99.90;;;;;;5112789;28;19923;-80
2023/07/21 03:29:40;;;;;;;;;;;9.90;99.90;;;;;;5112192;28;19926;-85
2023/07/21 03:32:06;;;;;;;;;;;9.90;99.90;;;;;;5095064;28;19924;-81
2023/07/21 03:34:31;;;;;;;;;;;9.80;99.90;;;;;;5112035;28;20577;-80
2023/07/21 03:36:57;;;;;;;;;;;9.80;99.90;;;;;;5112711;28;19927;-76
2023/07/21 03:39:23;;;;;;;;;;;9.80;99.90;;;;;;5113171;28;19934;-78
2023/07/21 03:41:50;;;;;;;;;;;9.80;99.90;;;;;;5095072;28;19931;-84
2023/07/21 03:44:16;;;;;;;;;;;9.80;99.90;;;;;;5112991;28;19934;-82
2023/07/21 03:46:41;;;;;;;;;;;9.70;99.90;;;;;;5112538;28;19927;-77
2023/07/21 03:49:11;;;;;;;;;;;9.80;99.90;;;;;;5113512;28;19946;-84
2023/07/21 03:51:39;;;;;;;;;;;9.80;99.90;;;;;;5112698;28;19931;-84
2023/07/21 03:54:04;;;;;;;;;;;9.90;99.90;;;;;;5095813;28;19927;-82
2023/07/21 03:56:30;;;;;;;;;;;9.90;99.90;;;;;;5113339;28;19919;-80
2023/07/21 03:58:57;;;;;;;;;;;10.00;99.90;;;;;;5112464;28;20701;-76
2023/07/21 04:01:22;;;;;;;;;;;10.00;99.90;;;;;;5079325;28;19923;-75
2023/07/21 04:03:48;;;;;;;;;;;10.00;99.90;;;;;;5113469;28;19931;-77
2023/07/21 04:06:23;;;;;;;;;;;10.00;99.90;;;;;;5112353;28;19931;-82
2023/07/21 04:08:51;;;;;;;;;;;10.00;99.90;;;;;;5095119;28;19923;-80
2023/07/21 04:11:25;;;;;;;;;;;10.10;99.90;;;;;;5112585;28;19924;-84
2023/07/21 04:13:51;;;;;;;;;;;10.10;99.90;;;;;;5117460;28;19919;-77
2023/07/21 04:16:16;;;;;;;;;;;10.10;99.90;;;;;;5117938;28;19923;-75
2023/07/21 04:18:42;;;;;;;;;;;10.10;99.90;;;;;;5096466;28;19982;-76
2023/07/21 04:21:07;;;;;;;;;;;10.10;99.90;;;;;;5077818;28;19920;-79
2023/07/21 04:23:34;;;;;;;;;;;10.20;99.90;;;;;;5111736;28;19920;-79
2023/07/21 04:26:06;;;;;;;;;;;10.20;99.90;;;;;;5079654;28;19974;-81
2023/07/21 04:28:32;;;;;;;;;;;10.30;99.90;;;;;;5113437;28;20016;-81
2023/07/21 04:30:58;;;;;;;;;;;10.40;99.90;;;;;;5112559;28;19920;-84
2023/07/21 04:33:24;;;;;;;;;;;10.50;99.90;;;;;;5095212;28;19939;-81
2023/07/21 04:35:51;;;;;;;;;;;10.60;99.90;;;;;;5113342;28;19920;-81
2023/07/21 04:38:16;;;;;;;;;;;10.70;99.90;;;;;;5111697;28;19988;-78
2023/07/21 04:40:44;;;;;;;;;;;10.80;99.90;;;;;;5094780;28;19920;-77
2023/07/21 04:43:11;;;;;;;;;;;10.80;99.90;;;;;;5111871;28;19923;-80
2023/07/21 04:45:40;;;;;;;;;;;11.00;99.90;;;;;;5112241;28;19967;-82
2023/07/21 04:48:05;;;;;;;;;;;11.10;99.90;;;;;;5111598;28;19931;-81
2023/07/21 04:50:31;;;;;;;;;;;11.20;99.90;;;;;;5111991;28;19920;-78
2023/07/21 04:52:56;;;;;;;;;;;11.30;99.90;;;;;;5114178;28;19970;-82
2023/07/21 04:55:28;;;;;;;;;;;11.50;99.90;;;;;;5116307;28;19996;-80
2023/07/21 04:57:53;;;;;;;;;;;11.60;99.90;;;;;;5117314;27;19999;-79
2023/07/21 05:00:19;;;;;;;;;;;11.60;99.90;;;;;;5099957;28;19920;-82
2023/07/21 05:02:45;;;;;;;;;;;11.70;99.90;;;;;;5105673;28;19924;-82
2023/07/21 05:05:11;;;;;;;;;;;11.90;99.90;;;;;;5077641;28;19933;-83
2023/07/21 05:07:36;;;;;;;;;;;12.00;99.90;;;;;;5095005;28;19924;-80
2023/07/21 05:10:03;;;;;;;;;;;12.10;99.90;;;;;;5095328;28;19970;-81
2023/07/21 05:12:30;;;;;;;;;;;12.40;99.90;;;;;;5097108;28;20057;-80
2023/07/21 05:14:57;;;;;;;;;;;12.60;99.90;;;;;;5096105;28;19939;-81
2023/07/21 05:17:25;;;;;;;;;;;12.80;99.90;;;;;;5097722;28;19971;-83
2023/07/21 05:19:50;;;;;;;;;;;13.00;99.90;;;;;;5096875;28;20340;-82
2023/07/21 05:22:16;;;;;;;;;;;13.10;99.90;;;;;;5095801;28;19920;-80
2023/07/21 05:24:41;;;;;;;;;;;13.30;99.90;;;;;;5061580;28;20407;-82
2023/07/21 05:27:07;;;;;;;;;;;13.30;99.90;;;;;;5095179;28;20373;-82
2023/07/21 05:29:34;;;;;;;;;;;13.40;99.90;;;;;;5097469;28;19928;-82
2023/07/21 05:32:01;;;;;;;;;;;13.50;99.90;;;;;;5079386;28;20002;-84
2023/07/21 05:34:27;;;;;;;;;;;13.60;99.90;;;;;;5061910;28;19924;-83
2023/07/21 05:36:53;;;;;;;;;;;13.70;99.90;;;;;;5095383;28;19920;-81
2023/07/21 05:39:19;;;;;;;;;;;13.80;99.90;;;;;;5095441;28;19924;-79
2023/07/21 05:41:45;;;;;;;;;;;14.00;99.90;;;;;;5095545;28;19924;-75
2023/07/21 05:44:12;;;;;;;;;;;14.10;99.90;;;;;;5079465;28;19923;-80
2023/07/21 05:46:39;;;;;;;;;;;14.20;99.90;;;;;;5115400;28;20412;-81
2023/07/21 05:49:07;;;;;;;;;;;14.30;99.90;;;;;;5115665;28;20376;-81
2023/07/21 05:51:34;;;;;;;;;;;14.30;99.90;;;;;;5117687;28;19935;-76
2023/07/21 05:54:03;;;;;;;;;;;14.40;99.90;;;;;;5119498;28;19931;-79
2023/07/21 05:56:29;;;;;;;;;;;14.50;99.90;;;;;;5098011;28;19923;-78
2023/07/21 05:58:56;;;;;;;;;;;14.50;99.90;;;;;;5114840;28;19920;-81
2023/07/21 06:01:23;;;;;;;;;;;14.60;99.90;;;;;;5114425;28;19924;-84
2023/07/21 06:03:54;;;;;;;;;;;14.70;99.90;;;;;;5098311;28;19946;-79
2023/07/21 06:06:20;;;;;;;;;;;14.80;99.90;;;;;;5114572;28;19924;-80
2023/07/21 06:08:46;;;;;;;;;;;15.00;99.90;;;;;;5115699;28;19920;-79
2023/07/21 06:11:13;;;;;;;;;;;15.00;99.90;;;;;;5097271;28;19949;-85
2023/07/21 06:13:38;;;;;;;;;;;15.20;99.90;;;;;;5098536;28;20062;-82
2023/07/21 06:16:10;;;;;;;;;;;15.20;99.90;;;;;;5114874;28;19942;-84
2023/07/21 06:18:35;;;;;;;;;;;15.20;99.90;;;;;;5114815;28;19920;-83
2023/07/21 06:21:04;;;;;;;;;;;15.20;99.90;;;;;;5114596;28;19919;-82
2023/07/21 06:23:35;;;;;;;;;;;15.20;99.90;;;;;;5114892;28;20355;-80
2023/07/21 06:26:01;;;;;;;;;;;15.30;99.90;;;;;;5097279;28;19959;-84
2023/07/21 06:28:27;;;;;;;;;;;15.40;99.90;;;;;;5114342;28;19927;-80
2023/07/21 06:30:52;;;;;;;;;;;15.50;99.90;;;;;;5114019;28;19969;-78
2023/07/21 06:33:18;;;;;;;;;;;15.60;99.90;;;;;;5096817;28;19971;-78
2023/07/21 06:35:44;;;;;;;;;;;15.60;99.90;;;;;;5114144;28;19926;-79
2023/07/21 06:38:09;;;;;;;;;;;15.70;99.90;;;;;;5113610;28;20337;-82
2023/07/21 06:40:35;;;;;;;;;;;15.80;99.90;;;;;;5097215;28;19920;-78
2023/07/21 06:43:01;;;;;;;;;;;15.90;99.90;;;;;;5114150;28;19923;-80
2023/07/21 06:45:27;;;;;;;;;;;16.10;99.90;;;;;;5097474;28;19928;-78
2023/07/21 06:47:54;;;;;;;;;;;16.30;99.90;;;;;;5114222;28;19928;-79
2023/07/21 06:50:20;;;;;;;;;;;16.40;99.90;;;;;;5102873;28;19927;-81
2023/07/21 06:52:46;;;;;;;;;;;16.70;99.90;;;;;;5076666;28;19924;-82
2023/07/21 06:55:12;;;;;;;;;;;16.90;99.90;;;;;;5119018;28;20340;-84
2023/07/21 06:57:38;;;;;;;;;;;17.10;99.90;;;;;;5114165;28;19919;-80
2023/07/21 07:00:06;;;;;;;;;;;17.30;99.90;;;;;;5097508;28;20238;-84
2023/07/21 07:02:33;;;;;;;;;;;17.50;99.90;;;;;;5115226;28;19923;-78
2023/07/21 07:04:58;;;;;;;;;;;17.70;99.90;;;;;;5113684;28;19930;-83
2023/07/21 07:07:30;;;;;;;;;;;18.00;99.90;;;;;;5113710;28;20452;-78
2023/07/21 07:09:55;;;;;;;;;;;18.20;99.90;;;;;;5096653;28;20006;-82
2023/07/21 07:12:22;;;;;;;;;;;18.40;99.90;;;;;;5113513;28;20006;-76
2023/07/21 07:14:49;;;;;;;;;;;18.40;99.90;;;;;;5096956;28;19974;-83
2023/07/21 07:17:15;;;;;;;;;;;18.50;99.90;;;;;;5113680;28;19931;-82
2023/07/21 07:19:40;;;;;;;;;;;18.60;99.90;;;;;;5113704;28;20285;-79
2023/07/21 07:22:08;;;;;;;;;;;18.80;99.90;;;;;;5097161;28;19945;-81
2023/07/21 07:24:36;;;;;;;;;;;18.90;99.90;;;;;;5114592;28;20422;-83
2023/07/21 07:27:11;;;;;;;;;;;19.00;99.90;;;;;;5115610;28;19919;-79
2023/07/21 07:29:36;;;;;;;;;;;19.10;99.90;;;;;;5096942;28;20030;-79
2023/07/21 07:32:02;;;;;;;;;;;19.20;99.90;;;;;;5113752;28;19999;-78
2023/07/21 07:34:28;;;;;;;;;;;19.20;99.90;;;;;;5113775;28;19927;-80
2023/07/21 07:36:54;;;;;;;;;;;19.00;99.90;;;;;;5113890;28;20395;-81
2023/07/21 07:39:25;;;;;;;;;;;18.90;99.90;;;;;;5114363;28;20349;-82
2023/07/21 07:41:51;;;;;;;;;;;18.90;99.90;;;;;;5113681;28;20002;-80
2023/07/21 07:44:17;;;;;;;;;;;18.80;99.90;;;;;;5114043;28;20384;-82
2023/07/21 07:46:43;;;;;;;;;;;18.80;99.90;;;;;;5116449;28;19928;-76
2023/07/21 07:49:09;;;;;;;;;;;18.90;99.90;;;;;;5114783;28;19923;-79
2023/07/21 07:51:40;;;;;;;;;;;19.00;99.90;;;;;;5103067;28;20023;-80
2023/07/21 07:54:07;;;;;;;;;;;19.00;99.90;;;;;;5094891;28;19966;-79
2023/07/21 07:56:33;;;;;;;;;;;19.00;99.90;;;;;;5094866;28;19924;-77
2023/07/21 07:58:59;;;;;;;;;;;19.20;99.90;;;;;;5092995;28;19930;-79
2023/07/21 08:01:26;;;;;;;;;;;19.20;99.90;;;;;;5096203;28;20421;-81
2023/07/21 08:03:52;;;;;;;;;;;19.30;99.90;;;;;;5081472;28;19930;-83
2023/07/21 08:06:17;;;;;;;;;;;19.50;99.90;;;;;;5099778;28;20351;-80
2023/07/21 08:08:43;;;;;;;;;;;19.50;99.90;;;;;;5095018;28;19927;-82
2023/07/21 08:11:09;;;;;;;;;;;19.40;99.90;;;;;;5095023;28;20003;-82
2023/07/21 08:13:40;;;;;;;;;;;19.40;99.90;;;;;;5068384;28;19924;-81
2023/07/21 08:16:09;;;;;;;;;;;19.40;99.90;;;;;;5101962;28;19975;-77
2023/07/21 08:18:41;;;;;;;;;;;19.40;99.90;;;;;;5100893;28;19931;-83
2023/07/21 08:21:23;;;;;;;;;;;19.40;99.90;;;;;;5067603;28;19928;-76
2023/07/21 08:23:49;;;;;;;;;;;19.50;99.90;;;;;;5102218;28;19924;-77
2023/07/21 08:26:15;;;;;;;;;;;19.60;99.90;;;;;;5094955;28;19982;-80
2023/07/21 08:28:41;;;;;;;;;;;19.70;99.90;;;;;;5102663;28;19924;-76
2023/07/21 08:31:06;;;;;;;;;;;19.90;99.90;;;;;;5101938;28;19963;-77
2023/07/21 08:33:32;;;;;;;;;;;20.10;99.90;;;;;;5101902;28;19927;-76
2023/07/21 08:35:57;;;;;;;;;;;20.20;99.90;;;;;;5102143;28;20337;-77
2023/07/21 08:38:24;;;;;;;;;;;20.20;99.90;;;;;;5083192;28;19969;-79
2023/07/21 08:40:53;;;;;;;;;;;20.30;99.90;;;;;;5098056;28;19920;-79
2023/07/21 08:43:19;;;;;;;;;;;20.20;99.90;;;;;;5073716;28;19977;-79
2023/07/21 08:45:47;;;;;;;;;;;20.30;99.90;;;;;;5095399;28;20352;-77
2023/07/21 08:48:16;;;;;;;;;;;20.40;99.90;;;;;;5111638;28;19931;-79
2023/07/21 08:50:42;;;;;;;;;;;20.40;99.90;;;;;;5111506;28;19969;-83
2023/07/21 08:53:07;;;;;;;;;;;20.40;99.90;;;;;;5112493;28;19928;-79
2023/07/21 08:55:38;;;;;;;;;;;20.60;99.90;;;;;;5114020;28;19927;-75
2023/07/21 08:58:04;;;;;;;;;;;20.70;99.90;;;;;;5100167;28;20391;-78
2023/07/21 09:00:31;;;;;;;;;;;20.80;99.90;;;;;;5096418;28;19920;-78
2023/07/21 09:02:58;;;;;;;;;;;20.80;99.90;;;;;;5112999;28;19920;-81
2023/07/21 09:05:24;;;;;;;;;;;20.80;99.90;;;;;;5094895;28;20392;-83
2023/07/21 09:07:49;;;;;;;;;;;20.70;99.90;;;;;;5111901;28;19970;-82
2023/07/21 09:10:37;;;;;;;;;;;20.70;99.90;;;;;;5112102;28;20395;-82
2023/07/21 09:13:14;;;;;;;;;;;20.80;99.90;;;;;;5111817;28;19924;-84
2023/07/21 09:15:40;;;;;;;;;;;21.00;99.90;;;;;;5094472;28;19997;-80
2023/07/21 09:18:06;;;;;;;;;;;21.10;99.90;;;;;;5096928;28;19924;-80
2023/07/21 09:20:34;;;;;;;;;;;20.80;99.90;;;;;;5114418;28;19955;-81
2023/07/21 09:23:01;;;;;;;;;;;20.60;99.90;;;;;;5116508;28;19919;-79
2023/07/21 09:25:26;;;;;;;;;;;20.60;99.90;;;;;;5114781;28;19987;-77
2023/07/21 09:27:53;;;;;;;;;;;20.90;99.90;;;;;;5113767;28;20011;-78
2023/07/21 09:30:19;;;;;;;;;;;21.20;99.90;;;;;;5112872;28;19924;-80
2023/07/21 09:32:46;;;;;;;;;;;21.30;99.90;;;;;;5112488;28;20014;-78
2023/07/21 09:35:12;;;;;;;;;;;21.30;99.90;;;;;;5095415;28;19919;-82
2023/07/21 09:37:48;;;;;;;;;;;21.10;99.90;;;;;;5080148;28;20474;-79
2023/07/21 09:40:14;;;;;;;;;;;21.10;99.90;;;;;;5116816;28;19992;-78
2023/07/21 09:42:40;;;;;;;;;;;21.10;99.90;;;;;;5095496;28;19920;-81
2023/07/21 09:45:05;;;;;;;;;;;21.00;99.90;;;;;;5114018;28;19928;-82
2023/07/21 09:47:35;;;;;;;;;;;21.00;99.90;;;;;;5115113;28;20347;-81
2023/07/21 09:50:01;;;;;;;;;;;21.10;99.90;;;;;;5115012;28;19970;-78
2023/07/21 09:52:28;;;;;;;;;;;21.10;99.90;;;;;;5115274;28;20346;-81
2023/07/21 09:55:00;;;;;;;;;;;21.30;99.90;;;;;;5115659;28;19919;-83
2023/07/21 09:57:27;;;;;;;;;;;21.50;99.90;;;;;;5115757;28;20346;-80
2023/07/21 10:00:02;;;;;;;;;;;21.60;99.90;;;;;;5099619;28;20285;-77
2023/07/21 10:02:29;;;;;;;;;;;21.50;99.90;;;;;;5115559;28;19923;-82
2023/07/21 10:04:55;;;;;;;;;;;21.30;99.90;;;;;;5116299;28;20027;-82
2023/07/21 10:07:21;;;;;;;;;;;21.20;99.90;;;;;;5082486;28;20368;-81
2023/07/21 10:09:49;;;;;;;;;;;21.20;99.90;;;;;;5116705;28;19969;-78
2023/07/21 10:12:16;;;;;;;;;;;21.10;99.70;;;;;;5105104;28;19924;-79
2023/07/21 10:14:42;;;;;;;;;;;21.10;99.80;;;;;;5115872;28;19924;-80
2023/07/21 10:17:08;;;;;;;;;;;21.20;99.90;;;;;;5099534;28;19941;-84
2023/07/21 10:19:41;;;;;;;;;;;21.20;98.40;;;;;;5116759;28;19951;-76
2023/07/21 10:22:09;;;;;;;;;;;21.30;99.10;;;;;;5117096;28;20044;-81
2023/07/21 10:24:41;;;;;;;;;;;21.50;99.80;;;;;;5098397;28;19924;-80
2023/07/21 10:27:07;;;;;;;;;;;21.70;99.50;;;;;;5116547;28;19997;-77
2023/07/21 10:29:33;;;;;;;;;;;21.90;98.30;;;;;;5115298;28;20369;-78
2023/07/21 10:31:59;;;;;;;;;;;21.80;97.70;;;;;;5081298;28;19920;-83
2023/07/21 10:34:42;;;;;;;;;;;21.70;97.10;;;;;;5115874;28;19965;-80
2023/07/21 10:37:07;;;;;;;;;;;21.60;96.90;;;;;;5115617;28;20293;-82
2023/07/21 10:39:42;;;;;;;;;;;21.50;95.90;;;;;;5114860;28;19923;-81
2023/07/21 10:42:11;;;;;;;;;;;21.50;95.90;;;;;;5116927;28;20296;-80
2023/07/21 10:44:37;;;;;;;;;;;21.40;96.00;;;;;;5107413;28;20244;-76
2023/07/21 10:47:04;;;;;;;;;;;21.30;95.20;;;;;;5124141;28;19931;-77
2023/07/21 10:49:39;;;;;;;;;;;21.20;96.00;;;;;;5124233;28;19919;-76
2023/07/21 10:52:06;;;;;;;;;;;21.40;96.30;;;;;;5105981;28;20658;-74
2023/07/21 10:54:32;;;;;;;;;;;21.70;95.90;;;;;;5121297;28;19923;-79
2023/07/21 10:56:58;;;;;;;;;;;21.80;94.70;;;;;;5122173;28;20262;-80
2023/07/21 10:59:24;;;;;;;;;;;22.00;95.20;;;;;;5123668;28;19923;-76
2023/07/21 11:01:56;;;;;;;;;;;22.30;94.90;;;;;;5123733;28;19938;-78
2023/07/21 11:04:22;;;;;;;;;;;22.40;93.60;;;;;;5122383;28;19920;-75
2023/07/21 11:06:49;;;;;;;;;;;22.40;94.30;;;;;;5120040;28;19928;-78
2023/07/21 11:09:16;;;;;;;;;;;22.50;94.00;;;;;;5115327;28;19994;-81
2023/07/21 11:11:43;;;;;;;;;;;22.60;92.80;;;;;;5121715;28;19947;-77
2023/07/21 11:14:23;;;;;;;;;;;22.50;91.10;;;;;;5114161;28;19935;-84
2023/07/21 11:17:00;;;;;;;;;;;22.40;91.60;;;;;;5113845;28;19956;-83
2023/07/21 11:19:27;;;;;;;;;;;22.40;91.80;;;;;;5115329;28;19920;-77
2023/07/21 11:21:53;;;;;;;;;;;22.50;90.60;;;;;;5097941;28;19935;-83
2023/07/21 11:24:26;;;;;;;;;;;22.40;91.30;;;;;;5099476;28;19976;-75
2023/07/21 11:27:18;;;;;;;;;;;22.60;91.60;;;;;;5118615;28;20385;-76
2023/07/21 11:29:45;;;;;;;;;;;22.70;90.90;;;;;;5113297;28;19930;-76
2023/07/21 11:32:20;;;;;;;;;;;22.90;90.20;;;;;;5113676;28;19927;-80
2023/07/21 11:34:53;;;;;;;;;;;22.90;89.50;;;;;;5096210;28;19966;-82
2023/07/21 11:37:20;;;;;;;;;;;23.00;89.70;;;;;;5113512;28;19926;-81
2023/07/21 11:39:53;;;;;;;;;;;23.20;90.30;;;;;;5112464;28;20451;-81
2023/07/21 11:42:19;;;;;;;;;;;23.40;90.10;;;;;;5096539;28;19923;-82
2023/07/21 11:44:52;;;;;;;;;;;23.40;90.00;;;;;;5113257;28;19927;-79
2023/07/21 11:47:17;;;;;;;;;;;23.30;90.10;;;;;;5113929;28;19919;-81
2023/07/21 11:49:46;;;;;;;;;;;23.10;89.90;;;;;;5115172;28;20209;-79
2023/07/21 11:52:25;;;;;;;;;;;23.10;91.00;;;;;;5113391;28;19950;-78
2023/07/21 11:54:54;;;;;;;;;;;23.40;90.70;;;;;;5112616;28;19930;-79
2023/07/21 11:57:20;;;;;;;;;;;23.70;89.40;;;;;;5095900;28;19919;-79
2023/07/21 11:59:45;;;;;;;;;;;23.80;88.90;;;;;;5095445;28;19926;-83
2023/07/21 12:02:13;;;;;;;;;;;23.50;87.70;;;;;;5112807;28;19950;-82
2023/07/21 12:04:45;;;;;;;;;;;23.10;89.20;;;;;;5097937;28;19919;-83
2023/07/21 12:07:11;;;;;;;;;;;22.80;89.90;;;;;;5097203;28;19919;-83
2023/07/21 12:09:38;;;;;;;;;;;22.30;90.50;;;;;;5096301;28;19919;-81
2023/07/21 12:12:05;;;;;;;;;;;21.60;91.50;;;;;;5113556;28;19927;-79
2023/07/21 12:14:30;;;;;;;;;;;21.00;93.00;;;;;;5113678;28;19920;-82
2023/07/21 12:16:56;;;;;;;;;;;20.50;94.80;;;;;;5113753;28;20382;-82
2023/07/21 12:19:28;;;;;;;;;;;20.30;96.40;;;;;;5097103;28;19927;-82
2023/07/21 12:21:54;;;;;;;;;;;20.20;97.00;;;;;;5114530;28;19931;-79
2023/07/21 12:24:20;;;;;;;;;;;20.00;99.00;;;;;;5112913;28;19920;-83
2023/07/21 12:26:45;;;;;;;;;;;19.70;99.80;;;;;;5112429;28;19924;-80
2023/07/21 12:29:11;;;;;;;;;;;19.40;99.90;;;;;;5095567;28;20000;-79
2023/07/21 12:31:36;;;;;;;;;;;19.10;99.90;;;;;;5094940;28;20017;-78
2023/07/21 12:34:04;;;;;;;;;;;18.70;99.90;;;;;;5073572;28;19931;-78
2023/07/21 12:36:30;;;;;;;;;;;18.20;99.90;;;;;;5057714;28;20289;-81
2023/07/21 12:38:57;;;;;;;;;;;17.80;99.90;;;;;;5090310;28;19920;-77
2023/07/21 12:41:22;;;;;;;;;;;17.50;99.90;;;;;;5090660;28;19924;-79
2023/07/21 12:43:48;;;;;;;;;;;17.40;99.90;;;;;;5090603;28;19924;-77
2023/07/21 12:46:14;;;;;;;;;;;17.40;99.90;;;;;;5073780;28;20396;-77
2023/07/21 12:48:43;;;;;;;;;;;17.50;99.90;;;;;;5090829;28;20366;-78
2023/07/21 12:51:10;;;;;;;;;;;17.60;99.90;;;;;;5090346;28;19978;-79
2023/07/21 12:53:37;;;;;;;;;;;17.60;99.90;;;;;;5090968;28;19924;-77
2023/07/21 12:56:04;;;;;;;;;;;17.50;99.90;;;;;;5090401;28;20018;-77
2023/07/21 12:58:30;;;;;;;;;;;17.30;99.90;;;;;;5092376;28;19924;-79
2023/07/21 13:00:56;;;;;;;;;;;17.00;99.90;;;;;;5089787;28;19970;-77
2023/07/21 13:03:21;;;;;;;;;;;16.80;99.90;;;;;;5090980;28;19946;-77
2023/07/21 13:05:47;;;;;;;;;;;16.40;99.90;;;;;;5091586;28;20296;-75
2023/07/21 13:08:13;;;;;;;;;;;15.90;99.90;;;;;;5092855;28;19924;-81
2023/07/21 13:10:38;;;;;;;;;;;15.30;99.90;;;;;;5077779;28;19920;-79
2023/07/21 13:13:04;;;;;;;;;;;14.90;99.90;;;;;;5097837;28;19927;-80
2023/07/21 13:15:33;;;;;;;;;;;14.50;99.90;;;;;;5099335;28;20622;-74
2023/07/21 13:17:59;;;;;;;;;;;14.20;99.90;;;;;;5079249;28;19924;-78
2023/07/21 13:20:25;;;;;;;;;;;14.00;99.90;;;;;;5078856;28;19920;-80
2023/07/21 13:22:50;;;;;;;;;;;13.90;99.90;;;;;;5065127;28;19924;-82
2023/07/21 13:25:16;;;;;;;;;;;13.90;99.90;;;;;;5082034;28;19928;-78
2023/07/21 13:27:48;;;;;;;;;;;13.90;99.90;;;;;;5086137;28;20326;-83
2023/07/21 13:30:15;;;;;;;;;;;14.00;99.90;;;;;;5105399;28;19920;-78
2023/07/21 13:32:41;;;;;;;;;;;14.10;99.90;;;;;;5101068;28;19926;-81
2023/07/21 13:35:12;;;;;;;;;;;14.30;99.90;;;;;;5103171;28;19926;-80
2023/07/21 13:37:47;;;;;;;;;;;14.50;99.90;;;;;;5123962;28;19969;-79
2023/07/21 13:40:13;;;;;;;;;;;14.70;99.90;;;;;;5124518;28;19923;-77
2023/07/21 13:42:39;;;;;;;;;;;14.90;99.90;;;;;;5121032;28;19923;-78
2023/07/21 13:45:05;;;;;;;;;;;15.10;99.90;;;;;;5120968;28;20041;-78
2023/07/21 13:47:31;;;;;;;;;;;15.20;99.90;;;;;;5120671;28;19945;-79
2023/07/21 13:49:58;;;;;;;;;;;15.20;99.90;;;;;;5121518;28;20354;-79
2023/07/21 13:52:24;;;;;;;;;;;15.10;99.90;;;;;;5103808;28;19949;-78
2023/07/21 13:54:50;;;;;;;;;;;15.10;99.90;;;;;;5105189;28;19965;-80
2023/07/21 13:57:17;;;;;;;;;;;15.20;99.90;;;;;;5122328;28;19949;-80
2023/07/21 13:59:43;;;;;;;;;;;15.10;99.90;;;;;;5123541;28;19920;-80
2023/07/21 14:02:08;;;;;;;;;;;15.20;99.90;;;;;;5122541;28;19920;-80
2023/07/21 14:04:37;;;;;;;;;;;15.20;99.90;;;;;;5118810;28;20010;-79
2023/07/21 14:07:09;;;;;;;;;;;15.30;99.90;;;;;;5104877;28;19957;-79
2023/07/21 14:09:42;;;;;;;;;;;15.40;99.90;;;;;;5104477;28;19920;-79
2023/07/21 14:12:08;;;;;;;;;;;15.50;99.90;;;;;;5103979;28;19923;-79
2023/07/21 14:14:39;;;;;;;;;;;15.60;99.90;;;;;;5121532;28;19966;-76
2023/07/21 14:17:06;;;;;;;;;;;15.70;99.90;;;;;;5105140;28;19923;-79
2023/07/21 14:19:35;;;;;;;;;;;15.80;99.90;;;;;;5120670;28;19920;-81